Jewett, TX (75846)

6:55 PM CDT on September 20, 2014 (GMT -0500)
Lake Limestone Social Circle | Change Station
CLOSE
Current Station
Personal Weather Station
Location: Thornton, TX
Elevation: 367 ft
Nearby Weather Stations

Elev 367 ft 31.37 °N, 96.34 °W | Updated 5 seconds ago

Clear
Clear
86.9 °F
Feels Like 90 °F
N
1.3
Wind Variable Wind from East
Gusts 4.9 mph

Today
High -- | Low -- °F
--% Chance of Precip.
Yesterday
High -- | Low -- °F
Precip. -- in
7:11 AM 7:24 PM
Waning Crescent, 10% visible
Pressure 29.94 in
Visibility 10.0 miles
Clouds Clear
Heat Index 90 °F
Dew Point 68 °F
Humidity 53%
Rainfall 0.00 in
Snow Depth Not available.
UV 0 out of 12
Pollen 10.00 out of 12
Air Quality Not available.
Flu Activity Not available.
METAR KLXY 202335Z AUTO 12006KT 10SM CLR 29/19 A2994 RMK AO2 T02900187

More Conditions Fewer Conditions

Pressure 29.94 in
Visibility 10.0 miles
Clouds Clear
Heat Index 90 °F
Dew Point 68 °F
Humidity 53%
Rainfall 0.00 in
Snow Depth Not available.
UV 0 out of 12
Pollen 10.00 out of 12
Air Quality Not available.
Flu Activity Not available.
METAR KLXY 202335Z AUTO 12006KT 10SM CLR 29/19 A2994 RMK AO2 T02900187

More Conditions Fewer Conditions

Nowcast | as of 3:01 PM CDT on September 20, 2014

Scattered showers are ongoing across much of North Texas this afternoon. This activity is moving slowly to the northwest at 5 to 10 mph. Additional showers and isolated storms will be possible through the rest of the afternoon and early evening...primarily along and west of the Interstate 35 corridor. Skies will remain mostly cloudy west of Interstate 35 and partly cloudy to the east through the afternoon. High temperatures will be in the upper 80s and low 90s in areas unaffected by rainfall. Winds will be southeast at 5 to 10 mph.

×

10-Day Weather Forecast

Almanac

Astronomy

Sep. 20, 2014 Rise Set
Actual Time 7:11 AM CDT 7:24 PM CDT
Civil Twilight 6:47 AM CDT 7:48 PM CDT
Nautical Twilight 6:19 AM CDT 8:16 PM CDT
Astronomical Twilight 5:50 AM CDT 8:45 PM CDT
Moon 4:02 AM CDT 5:19 PM CDT
Length of Visible Light 13h 00m
Length of Day
12h 12m
Tomorrow will be 1m 54s shorter.
Waning Crescent, 10% of the Moon is Illuminated
Today
Waning Crescent
Sep 24
New
Oct 1
First Quarter
Oct 8
Full
Oct 15
Last Quarter

Today's Extremes

State Highs State Lows

Community

WunderPhotos

Upload Photos

1,754,978 photos uploaded!

WunderBlogs® & News

Nearby

Snow Depth

Station Depth Elevation
No new snow has been reported.

Earthquake Activity

City Distance Mag. Time & Date
No recent earthquake activity has been reported nearby.
Minimum magnitude displayed is 2.5.

Coastal Water Temperatures

Place Temperature
No Stations Reporting

Nearby Weather Stations